sensor_id;sensor_type;location;lat;lon;timestamp;temperature;humidity
34406;DHT22;20658;45.630;8.886;2023-06-22T00:01:52;24.00;78.50
34406;DHT22;20658;45.630;8.886;2023-06-22T00:04:25;24.00;78.60
34406;DHT22;20658;45.630;8.886;2023-06-22T00:07:00;24.00;78.70
34406;DHT22;20658;45.630;8.886;2023-06-22T00:09:33;23.90;78.70
34406;DHT22;20658;45.630;8.886;2023-06-22T00:12:08;23.90;79.20
34406;DHT22;20658;45.630;8.886;2023-06-22T00:14:36;23.90;79.50
34406;DHT22;20658;45.630;8.886;2023-06-22T00:17:10;23.90;79.50
34406;DHT22;20658;45.630;8.886;2023-06-22T00:19:43;23.90;79.60
34406;DHT22;20658;45.630;8.886;2023-06-22T00:22:21;23.80;80.00
34406;DHT22;20658;45.630;8.886;2023-06-22T00:25:00;23.80;80.40
34406;DHT22;20658;45.630;8.886;2023-06-22T00:27:33;23.80;80.50
34406;DHT22;20658;45.630;8.886;2023-06-22T00:30:08;23.70;80.80
34406;DHT22;20658;45.630;8.886;2023-06-22T00:32:42;23.70;80.80
34406;DHT22;20658;45.630;8.886;2023-06-22T00:35:16;23.70;80.80
34406;DHT22;20658;45.630;8.886;2023-06-22T00:37:51;23.60;80.80
34406;DHT22;20658;45.630;8.886;2023-06-22T00:40:25;23.50;80.90
34406;DHT22;20658;45.630;8.886;2023-06-22T00:42:59;23.60;80.70
34406;DHT22;20658;45.630;8.886;2023-06-22T00:45:32;23.60;80.70
34406;DHT22;20658;45.630;8.886;2023-06-22T00:48:07;23.50;80.60
34406;DHT22;20658;45.630;8.886;2023-06-22T00:50:41;23.50;81.00
34406;DHT22;20658;45.630;8.886;2023-06-22T00:53:18;23.50;81.10
34406;DHT22;20658;45.630;8.886;2023-06-22T00:55:54;23.50;80.70
34406;DHT22;20658;45.630;8.886;2023-06-22T00:58:27;23.40;80.70
34406;DHT22;20658;45.630;8.886;2023-06-22T01:01:01;23.40;81.00
34406;DHT22;20658;45.630;8.886;2023-06-22T01:03:36;23.40;81.10
34406;DHT22;20658;45.630;8.886;2023-06-22T01:06:13;23.30;81.20
34406;DHT22;20658;45.630;8.886;2023-06-22T01:08:57;23.40;81.40
34406;DHT22;20658;45.630;8.886;2023-06-22T01:11:38;23.30;81.40
34406;DHT22;20658;45.630;8.886;2023-06-22T01:14:18;23.20;81.50
34406;DHT22;20658;45.630;8.886;2023-06-22T01:16:57;23.30;81.60
34406;DHT22;20658;45.630;8.886;2023-06-22T01:19:37;23.20;81.70
34406;DHT22;20658;45.630;8.886;2023-06-22T01:22:16;23.20;81.60
34406;DHT22;20658;45.630;8.886;2023-06-22T01:24:57;23.20;82.00
34406;DHT22;20658;45.630;8.886;2023-06-22T01:27:50;23.20;82.40
34406;DHT22;20658;45.630;8.886;2023-06-22T01:30:28;23.20;82.40
34406;DHT22;20658;45.630;8.886;2023-06-22T01:32:58;23.20;82.40
34406;DHT22;20658;45.630;8.886;2023-06-22T01:35:33;23.10;82.70
34406;DHT22;20658;45.630;8.886;2023-06-22T01:38:07;23.10;82.80
34406;DHT22;20658;45.630;8.886;2023-06-22T01:40:41;23.10;83.00
34406;DHT22;20658;45.630;8.886;2023-06-22T01:43:16;23.10;83.20
34406;DHT22;20658;45.630;8.886;2023-06-22T01:45:51;23.10;83.10
34406;DHT22;20658;45.630;8.886;2023-06-22T01:48:26;23.00;83.30
34406;DHT22;20658;45.630;8.886;2023-06-22T01:51:02;23.10;83.30
34406;DHT22;20658;45.630;8.886;2023-06-22T01:53:30;23.10;83.00
34406;DHT22;20658;45.630;8.886;2023-06-22T01:56:04;23.00;83.30
34406;DHT22;20658;45.630;8.886;2023-06-22T01:58:43;22.90;83.70
34406;DHT22;20658;45.630;8.886;2023-06-22T02:01:29;23.00;83.70
34406;DHT22;20658;45.630;8.886;2023-06-22T02:04:12;23.00;83.60
34406;DHT22;20658;45.630;8.886;2023-06-22T02:06:47;22.90;84.20
34406;DHT22;20658;45.630;8.886;2023-06-22T02:09:25;22.90;84.20
34406;DHT22;20658;45.630;8.886;2023-06-22T02:12:03;22.90;84.50
34406;DHT22;20658;45.630;8.886;2023-06-22T02:14:37;22.90;84.40
34406;DHT22;20658;45.630;8.886;2023-06-22T02:17:13;22.90;84.30
34406;DHT22;20658;45.630;8.886;2023-06-22T02:19:41;22.90;84.80
34406;DHT22;20658;45.630;8.886;2023-06-22T02:22:15;22.80;85.10
34406;DHT22;20658;45.630;8.886;2023-06-22T02:24:48;22.80;85.30
34406;DHT22;20658;45.630;8.886;2023-06-22T02:27:22;22.80;85.20
34406;DHT22;20658;45.630;8.886;2023-06-22T02:29:56;22.80;85.20
34406;DHT22;20658;45.630;8.886;2023-06-22T02:32:26;22.80;85.50
34406;DHT22;20658;45.630;8.886;2023-06-22T02:34:54;22.80;85.90
34406;DHT22;20658;45.630;8.886;2023-06-22T02:37:28;22.70;86.40
34406;DHT22;20658;45.630;8.886;2023-06-22T02:40:01;22.70;86.50
34406;DHT22;20658;45.630;8.886;2023-06-22T02:42:36;22.70;86.40
34406;DHT22;20658;45.630;8.886;2023-06-22T02:45:10;22.80;86.20
34406;DHT22;20658;45.630;8.886;2023-06-22T02:47:40;22.70;86.20
34406;DHT22;20658;45.630;8.886;2023-06-22T02:50:13;22.80;86.10
34406;DHT22;20658;45.630;8.886;2023-06-22T02:52:47;22.80;86.00
34406;DHT22;20658;45.630;8.886;2023-06-22T02:55:21;22.80;86.00
34406;DHT22;20658;45.630;8.886;2023-06-22T02:57:57;22.90;85.40
34406;DHT22;20658;45.630;8.886;2023-06-22T03:00:33;22.90;85.10
34406;DHT22;20658;45.630;8.886;2023-06-22T03:03:08;22.90;85.10
34406;DHT22;20658;45.630;8.886;2023-06-22T03:05:42;22.90;84.90
34406;DHT22;20658;45.630;8.886;2023-06-22T03:08:15;22.90;84.90
34406;DHT22;20658;45.630;8.886;2023-06-22T03:10:49;22.90;84.80
34406;DHT22;20658;45.630;8.886;2023-06-22T03:13:17;22.90;84.60
34406;DHT22;20658;45.630;8.886;2023-06-22T03:15:51;22.90;84.60
34406;DHT22;20658;45.630;8.886;2023-06-22T03:18:27;22.90;84.70
34406;DHT22;20658;45.630;8.886;2023-06-22T03:21:00;22.90;84.60
34406;DHT22;20658;45.630;8.886;2023-06-22T03:23:34;22.90;84.60
34406;DHT22;20658;45.630;8.886;2023-06-22T03:26:08;22.90;84.80
34406;DHT22;20658;45.630;8.886;2023-06-22T03:28:42;22.90;84.60
34406;DHT22;20658;45.630;8.886;2023-06-22T03:31:16;22.90;84.80
34406;DHT22;20658;45.630;8.886;2023-06-22T03:33:55;22.90;85.00
34406;DHT22;20658;45.630;8.886;2023-06-22T03:36:28;22.90;85.00
34406;DHT22;20658;45.630;8.886;2023-06-22T03:39:02;22.90;86.10
34406;DHT22;20658;45.630;8.886;2023-06-22T03:41:36;22.80;86.60
34406;DHT22;20658;45.630;8.886;2023-06-22T03:44:10;22.80;86.70
34406;DHT22;20658;45.630;8.886;2023-06-22T03:46:44;22.80;86.80
34406;DHT22;20658;45.630;8.886;2023-06-22T03:49:20;22.80;86.40
34406;DHT22;20658;45.630;8.886;2023-06-22T03:51:53;22.80;86.60
34406;DHT22;20658;45.630;8.886;2023-06-22T03:54:27;22.80;87.30
34406;DHT22;20658;45.630;8.886;2023-06-22T03:57:01;22.80;87.40
34406;DHT22;20658;45.630;8.886;2023-06-22T03:59:35;22.80;87.20
34406;DHT22;20658;45.630;8.886;2023-06-22T04:02:08;22.80;87.10
34406;DHT22;20658;45.630;8.886;2023-06-22T04:04:43;22.80;87.10
34406;DHT22;20658;45.630;8.886;2023-06-22T04:07:17;22.80;86.70
34406;DHT22;20658;45.630;8.886;2023-06-22T04:09:50;22.80;86.90
34406;DHT22;20658;45.630;8.886;2023-06-22T04:12:24;22.70;87.50
34406;DHT22;20658;45.630;8.886;2023-06-22T04:14:57;22.70;87.60
34406;DHT22;20658;45.630;8.886;2023-06-22T04:17:31;22.70;87.40
34406;DHT22;20658;45.630;8.886;2023-06-22T04:20:07;22.80;87.60
34406;DHT22;20658;45.630;8.886;2023-06-22T04:22:41;22.80;87.30
34406;DHT22;20658;45.630;8.886;2023-06-22T04:25:15;22.70;87.20
34406;DHT22;20658;45.630;8.886;2023-06-22T04:27:48;22.80;87.00
34406;DHT22;20658;45.630;8.886;2023-06-22T04:30:22;22.80;86.80
34406;DHT22;20658;45.630;8.886;2023-06-22T04:32:56;22.80;86.70
34406;DHT22;20658;45.630;8.886;2023-06-22T04:35:31;22.80;86.60
34406;DHT22;20658;45.630;8.886;2023-06-22T04:38:04;22.80;86.20
34406;DHT22;20658;45.630;8.886;2023-06-22T04:40:38;22.80;86.10
34406;DHT22;20658;45.630;8.886;2023-06-22T04:43:11;22.80;86.70
34406;DHT22;20658;45.630;8.886;2023-06-22T04:45:44;22.80;86.70
34406;DHT22;20658;45.630;8.886;2023-06-22T04:48:18;22.80;86.50
34406;DHT22;20658;45.630;8.886;2023-06-22T04:50:53;22.90;86.20
34406;DHT22;20658;45.630;8.886;2023-06-22T04:53:26;22.90;86.10
34406;DHT22;20658;45.630;8.886;2023-06-22T04:56:01;23.00;85.50
34406;DHT22;20658;45.630;8.886;2023-06-22T04:58:36;23.00;85.00
34406;DHT22;20658;45.630;8.886;2023-06-22T05:01:09;23.10;85.30
34406;DHT22;20658;45.630;8.886;2023-06-22T05:03:43;23.10;85.40
34406;DHT22;20658;45.630;8.886;2023-06-22T05:06:17;23.20;85.00
34406;DHT22;20658;45.630;8.886;2023-06-22T05:08:52;23.20;84.50
34406;DHT22;20658;45.630;8.886;2023-06-22T05:11:29;23.30;84.40
34406;DHT22;20658;45.630;8.886;2023-06-22T05:14:02;23.30;84.40
34406;DHT22;20658;45.630;8.886;2023-06-22T05:16:36;23.30;84.80
34406;DHT22;20658;45.630;8.886;2023-06-22T05:19:10;23.20;85.10
34406;DHT22;20658;45.630;8.886;2023-06-22T05:21:45;23.20;85.30
34406;DHT22;20658;45.630;8.886;2023-06-22T05:24:18;23.20;85.40
34406;DHT22;20658;45.630;8.886;2023-06-22T05:26:52;23.20;85.30
34406;DHT22;20658;45.630;8.886;2023-06-22T05:29:25;23.10;85.70
34406;DHT22;20658;45.630;8.886;2023-06-22T05:31:59;23.20;85.60
34406;DHT22;20658;45.630;8.886;2023-06-22T05:34:32;23.30;85.20
34406;DHT22;20658;45.630;8.886;2023-06-22T05:37:07;23.50;84.70
34406;DHT22;20658;45.630;8.886;2023-06-22T05:39:42;23.80;83.50
34406;DHT22;20658;45.630;8.886;2023-06-22T05:42:15;24.00;82.60
34406;DHT22;20658;45.630;8.886;2023-06-22T05:44:49;24.00;81.90
34406;DHT22;20658;45.630;8.886;2023-06-22T05:47:22;24.30;81.30
34406;DHT22;20658;45.630;8.886;2023-06-22T05:49:56;24.70;79.20
34406;DHT22;20658;45.630;8.886;2023-06-22T05:52:31;25.10;77.80
34406;DHT22;20658;45.630;8.886;2023-06-22T05:55:05;25.50;75.20
34406;DHT22;20658;45.630;8.886;2023-06-22T05:57:34;25.80;74.30
34406;DHT22;20658;45.630;8.886;2023-06-22T06:00:08;26.00;72.90
34406;DHT22;20658;45.630;8.886;2023-06-22T06:02:44;26.20;71.40
34406;DHT22;20658;45.630;8.886;2023-06-22T06:05:13;26.40;70.20
34406;DHT22;20658;45.630;8.886;2023-06-22T06:07:48;26.30;69.80
34406;DHT22;20658;45.630;8.886;2023-06-22T06:10:16;26.40;69.00
34406;DHT22;20658;45.630;8.886;2023-06-22T06:12:45;26.30;69.30
34406;DHT22;20658;45.630;8.886;2023-06-22T06:15:18;26.20;69.30
34406;DHT22;20658;45.630;8.886;2023-06-22T06:17:52;26.10;69.80
34406;DHT22;20658;45.630;8.886;2023-06-22T06:20:26;26.10;70.00
34406;DHT22;20658;45.630;8.886;2023-06-22T06:23:02;26.40;69.80
34406;DHT22;20658;45.630;8.886;2023-06-22T06:25:35;26.90;68.00
34406;DHT22;20658;45.630;8.886;2023-06-22T06:28:09;27.50;66.10
34406;DHT22;20658;45.630;8.886;2023-06-22T06:30:42;27.90;63.70
34406;DHT22;20658;45.630;8.886;2023-06-22T06:33:16;28.20;62.90
34406;DHT22;20658;45.630;8.886;2023-06-22T06:35:49;28.30;61.90
34406;DHT22;20658;45.630;8.886;2023-06-22T06:38:24;28.40;61.40
34406;DHT22;20658;45.630;8.886;2023-06-22T06:40:58;28.40;61.20
34406;DHT22;20658;45.630;8.886;2023-06-22T06:43:32;28.20;61.10
34406;DHT22;20658;45.630;8.886;2023-06-22T06:46:05;28.60;60.30
34406;DHT22;20658;45.630;8.886;2023-06-22T06:48:39;29.20;59.90
34406;DHT22;20658;45.630;8.886;2023-06-22T06:51:12;29.40;58.00
34406;DHT22;20658;45.630;8.886;2023-06-22T06:53:47;29.70;57.50
34406;DHT22;20658;45.630;8.886;2023-06-22T06:56:21;29.90;56.50
34406;DHT22;20658;45.630;8.886;2023-06-22T06:58:55;30.20;55.90
34406;DHT22;20658;45.630;8.886;2023-06-22T07:01:30;30.30;55.70
34406;DHT22;20658;45.630;8.886;2023-06-22T07:04:05;30.60;54.40
34406;DHT22;20658;45.630;8.886;2023-06-22T07:06:39;30.30;54.50
34406;DHT22;20658;45.630;8.886;2023-06-22T07:09:13;30.00;54.90
34406;DHT22;20658;45.630;8.886;2023-06-22T07:11:47;30.40;54.50
34406;DHT22;20658;45.630;8.886;2023-06-22T07:14:15;30.40;53.50
34406;DHT22;20658;45.630;8.886;2023-06-22T07:16:49;30.70;53.20
34406;DHT22;20658;45.630;8.886;2023-06-22T07:19:24;30.70;53.10
34406;DHT22;20658;45.630;8.886;2023-06-22T07:21:58;30.80;52.30
34406;DHT22;20658;45.630;8.886;2023-06-22T07:24:33;30.70;51.90
34406;DHT22;20658;45.630;8.886;2023-06-22T07:27:07;30.70;51.80
34406;DHT22;20658;45.630;8.886;2023-06-22T07:29:43;31.20;51.30
34406;DHT22;20658;45.630;8.886;2023-06-22T07:32:16;31.00;51.60
34406;DHT22;20658;45.630;8.886;2023-06-22T07:34:50;30.90;50.90
34406;DHT22;20658;45.630;8.886;2023-06-22T07:37:23;31.10;50.70
34406;DHT22;20658;45.630;8.886;2023-06-22T07:40:00;31.10;50.20
34406;DHT22;20658;45.630;8.886;2023-06-22T07:42:37;31.40;50.50
34406;DHT22;20658;45.630;8.886;2023-06-22T07:45:11;31.10;49.70
34406;DHT22;20658;45.630;8.886;2023-06-22T07:47:44;31.30;49.90
34406;DHT22;20658;45.630;8.886;2023-06-22T07:50:18;31.40;49.10
34406;DHT22;20658;45.630;8.886;2023-06-22T07:52:51;31.30;49.00
34406;DHT22;20658;45.630;8.886;2023-06-22T07:55:26;31.30;50.30
34406;DHT22;20658;45.630;8.886;2023-06-22T07:58:00;31.60;49.40
34406;DHT22;20658;45.630;8.886;2023-06-22T08:00:34;31.90;48.70
34406;DHT22;20658;45.630;8.886;2023-06-22T08:03:07;32.10;48.10
34406;DHT22;20658;45.630;8.886;2023-06-22T08:05:41;32.30;47.50
34406;DHT22;20658;45.630;8.886;2023-06-22T08:08:14;32.50;46.80
34406;DHT22;20658;45.630;8.886;2023-06-22T08:10:50;32.90;46.00
34406;DHT22;20658;45.630;8.886;2023-06-22T08:13:23;33.20;45.60
34406;DHT22;20658;45.630;8.886;2023-06-22T08:15:57;33.00;45.60
34406;DHT22;20658;45.630;8.886;2023-06-22T08:18:30;33.10;45.60
34406;DHT22;20658;45.630;8.886;2023-06-22T08:21:04;32.90;44.40
34406;DHT22;20658;45.630;8.886;2023-06-22T08:23:37;32.70;45.60
34406;DHT22;20658;45.630;8.886;2023-06-22T08:26:12;33.10;45.60
34406;DHT22;20658;45.630;8.886;2023-06-22T08:28:45;33.20;45.00
34406;DHT22;20658;45.630;8.886;2023-06-22T08:31:19;33.00;45.20
34406;DHT22;20658;45.630;8.886;2023-06-22T08:33:52;33.00;45.20
34406;DHT22;20658;45.630;8.886;2023-06-22T08:36:26;33.20;45.60
34406;DHT22;20658;45.630;8.886;2023-06-22T08:39:00;33.30;44.70
34406;DHT22;20658;45.630;8.886;2023-06-22T08:41:36;33.40;44.80
34406;DHT22;20658;45.630;8.886;2023-06-22T08:44:05;34.00;44.50
34406;DHT22;20658;45.630;8.886;2023-06-22T08:46:38;34.20;43.40
34406;DHT22;20658;45.630;8.886;2023-06-22T08:49:12;34.50;42.30
34406;DHT22;20658;45.630;8.886;2023-06-22T08:51:46;34.10;43.00
34406;DHT22;20658;45.630;8.886;2023-06-22T08:54:21;34.40;42.60
34406;DHT22;20658;45.630;8.886;2023-06-22T08:56:56;34.30;42.40
34406;DHT22;20658;45.630;8.886;2023-06-22T08:59:29;34.00;42.20
34406;DHT22;20658;45.630;8.886;2023-06-22T09:02:03;33.70;42.20
34406;DHT22;20658;45.630;8.886;2023-06-22T09:04:37;33.40;43.30
34406;DHT22;20658;45.630;8.886;2023-06-22T09:07:10;33.50;43.30
34406;DHT22;20658;45.630;8.886;2023-06-22T09:09:44;33.40;42.80
34406;DHT22;20658;45.630;8.886;2023-06-22T09:12:20;33.50;41.70
34406;DHT22;20658;45.630;8.886;2023-06-22T09:14:57;33.50;42.30
34406;DHT22;20658;45.630;8.886;2023-06-22T09:17:33;33.90;41.60
34406;DHT22;20658;45.630;8.886;2023-06-22T09:20:08;34.00;41.70
34406;DHT22;20658;45.630;8.886;2023-06-22T09:22:43;34.50;40.90
34406;DHT22;20658;45.630;8.886;2023-06-22T09:25:17;34.40;39.80
34406;DHT22;20658;45.630;8.886;2023-06-22T09:27:53;34.20;40.40
34406;DHT22;20658;45.630;8.886;2023-06-22T09:30:27;33.90;39.90
34406;DHT22;20658;45.630;8.886;2023-06-22T09:33:00;34.30;39.70
34406;DHT22;20658;45.630;8.886;2023-06-22T09:35:29;34.50;38.60
34406;DHT22;20658;45.630;8.886;2023-06-22T09:38:02;34.50;38.20
34406;DHT22;20658;45.630;8.886;2023-06-22T09:40:36;34.50;38.40
34406;DHT22;20658;45.630;8.886;2023-06-22T09:43:13;34.30;38.60
34406;DHT22;20658;45.630;8.886;2023-06-22T09:45:46;34.00;39.00
34406;DHT22;20658;45.630;8.886;2023-06-22T09:48:20;33.90;38.40
34406;DHT22;20658;45.630;8.886;2023-06-22T09:50:53;34.00;38.50
34406;DHT22;20658;45.630;8.886;2023-06-22T09:53:27;34.10;38.90
34406;DHT22;20658;45.630;8.886;2023-06-22T09:56:00;34.20;38.90
34406;DHT22;20658;45.630;8.886;2023-06-22T09:58:35;34.20;38.90
34406;DHT22;20658;45.630;8.886;2023-06-22T10:01:09;34.50;38.80
34406;DHT22;20658;45.630;8.886;2023-06-22T10:03:43;34.60;38.20
34406;DHT22;20658;45.630;8.886;2023-06-22T10:06:16;34.80;38.40
34406;DHT22;20658;45.630;8.886;2023-06-22T10:08:50;35.00;38.30
34406;DHT22;20658;45.630;8.886;2023-06-22T10:11:24;35.40;37.80
34406;DHT22;20658;45.630;8.886;2023-06-22T10:14:03;35.20;38.00
34406;DHT22;20658;45.630;8.886;2023-06-22T10:16:37;34.90;37.80
34406;DHT22;20658;45.630;8.886;2023-06-22T10:19:10;34.70;36.30
34406;DHT22;20658;45.630;8.886;2023-06-22T10:21:44;34.90;36.00
34406;DHT22;20658;45.630;8.886;2023-06-22T10:24:17;35.10;36.60
34406;DHT22;20658;45.630;8.886;2023-06-22T10:26:51;35.60;36.40
34406;DHT22;20658;45.630;8.886;2023-06-22T10:29:25;35.80;35.00
34406;DHT22;20658;45.630;8.886;2023-06-22T10:31:59;35.80;35.40
34406;DHT22;20658;45.630;8.886;2023-06-22T10:34:32;35.80;35.70
34406;DHT22;20658;45.630;8.886;2023-06-22T10:37:06;35.70;35.70
34406;DHT22;20658;45.630;8.886;2023-06-22T10:39:39;35.40;36.40
34406;DHT22;20658;45.630;8.886;2023-06-22T10:42:13;35.50;36.20
34406;DHT22;20658;45.630;8.886;2023-06-22T10:44:48;35.70;36.40
34406;DHT22;20658;45.630;8.886;2023-06-22T10:47:21;35.90;35.40
34406;DHT22;20658;45.630;8.886;2023-06-22T10:49:55;35.80;36.00
34406;DHT22;20658;45.630;8.886;2023-06-22T10:52:28;35.80;35.80
34406;DHT22;20658;45.630;8.886;2023-06-22T10:54:57;35.40;35.70
34406;DHT22;20658;45.630;8.886;2023-06-22T10:57:30;35.30;36.10
34406;DHT22;20658;45.630;8.886;2023-06-22T11:00:07;35.40;36.30
34406;DHT22;20658;45.630;8.886;2023-06-22T11:02:43;35.50;35.20
34406;DHT22;20658;45.630;8.886;2023-06-22T11:05:17;35.40;35.90
34406;DHT22;20658;45.630;8.886;2023-06-22T11:07:50;35.50;36.40
34406;DHT22;20658;45.630;8.886;2023-06-22T11:10:23;35.50;34.10
34406;DHT22;20658;45.630;8.886;2023-06-22T11:12:57;35.60;33.60
34406;DHT22;20658;45.630;8.886;2023-06-22T11:15:27;35.50;33.80
34406;DHT22;20658;45.630;8.886;2023-06-22T11:18:01;35.80;33.10
34406;DHT22;20658;45.630;8.886;2023-06-22T11:20:34;36.00;33.60
34406;DHT22;20658;45.630;8.886;2023-06-22T11:23:11;36.00;33.60
34406;DHT22;20658;45.630;8.886;2023-06-22T11:25:45;35.80;33.30
34406;DHT22;20658;45.630;8.886;2023-06-22T11:28:18;35.60;33.90
34406;DHT22;20658;45.630;8.886;2023-06-22T11:30:53;35.80;33.50
34406;DHT22;20658;45.630;8.886;2023-06-22T11:33:27;35.90;33.40
34406;DHT22;20658;45.630;8.886;2023-06-22T11:36:00;36.20;33.40
34406;DHT22;20658;45.630;8.886;2023-06-22T11:38:34;36.70;33.00
34406;DHT22;20658;45.630;8.886;2023-06-22T11:41:09;37.00;33.10
34406;DHT22;20658;45.630;8.886;2023-06-22T11:43:43;37.00;32.90
34406;DHT22;20658;45.630;8.886;2023-06-22T11:46:18;36.90;32.30
34406;DHT22;20658;45.630;8.886;2023-06-22T11:48:47;36.80;32.60
34406;DHT22;20658;45.630;8.886;2023-06-22T11:51:20;36.80;32.40
34406;DHT22;20658;45.630;8.886;2023-06-22T11:53:54;36.80;32.40
34406;DHT22;20658;45.630;8.886;2023-06-22T11:56:27;37.40;33.30
34406;DHT22;20658;45.630;8.886;2023-06-22T11:59:01;37.80;31.50
34406;DHT22;20658;45.630;8.886;2023-06-22T12:01:36;37.70;32.10
34406;DHT22;20658;45.630;8.886;2023-06-22T12:04:09;37.50;32.40
34406;DHT22;20658;45.630;8.886;2023-06-22T12:06:43;37.20;32.40
34406;DHT22;20658;45.630;8.886;2023-06-22T12:09:16;37.00;32.70
34406;DHT22;20658;45.630;8.886;2023-06-22T12:11:50;36.70;32.00
34406;DHT22;20658;45.630;8.886;2023-06-22T12:14:23;36.70;32.10
34406;DHT22;20658;45.630;8.886;2023-06-22T12:16:58;37.00;33.00
34406;DHT22;20658;45.630;8.886;2023-06-22T12:19:32;37.30;32.30
34406;DHT22;20658;45.630;8.886;2023-06-22T12:22:05;37.70;32.50
34406;DHT22;20658;45.630;8.886;2023-06-22T12:24:39;38.00;31.90
34406;DHT22;20658;45.630;8.886;2023-06-22T12:27:13;38.20;32.20
34406;DHT22;20658;45.630;8.886;2023-06-22T12:29:48;38.10;32.60
34406;DHT22;20658;45.630;8.886;2023-06-22T12:32:23;37.40;32.70
34406;DHT22;20658;45.630;8.886;2023-06-22T12:34:57;37.10;33.50
34406;DHT22;20658;45.630;8.886;2023-06-22T12:37:31;36.90;32.90
34406;DHT22;20658;45.630;8.886;2023-06-22T12:40:06;36.80;33.20
34406;DHT22;20658;45.630;8.886;2023-06-22T12:42:41;37.00;34.30
34406;DHT22;20658;45.630;8.886;2023-06-22T12:45:14;37.60;33.30
34406;DHT22;20658;45.630;8.886;2023-06-22T12:47:49;37.90;32.30
34406;DHT22;20658;45.630;8.886;2023-06-22T12:50:23;37.60;31.80
34406;DHT22;20658;45.630;8.886;2023-06-22T12:52:51;37.00;32.50
34406;DHT22;20658;45.630;8.886;2023-06-22T12:55:24;36.40;33.80
34406;DHT22;20658;45.630;8.886;2023-06-22T12:57:58;36.50;34.50
34406;DHT22;20658;45.630;8.886;2023-06-22T13:00:26;36.60;34.40
34406;DHT22;20658;45.630;8.886;2023-06-22T13:02:56;36.90;33.20
34406;DHT22;20658;45.630;8.886;2023-06-22T13:05:25;37.00;33.90
34406;DHT22;20658;45.630;8.886;2023-06-22T13:07:58;37.60;32.60
34406;DHT22;20658;45.630;8.886;2023-06-22T13:10:27;37.40;32.10
34406;DHT22;20658;45.630;8.886;2023-06-22T13:13:00;37.50;32.50
34406;DHT22;20658;45.630;8.886;2023-06-22T13:15:34;37.80;32.10
34406;DHT22;20658;45.630;8.886;2023-06-22T13:18:04;38.20;32.80
34406;DHT22;20658;45.630;8.886;2023-06-22T13:20:37;38.10;32.70
34406;DHT22;20658;45.630;8.886;2023-06-22T13:23:10;38.10;32.70
34406;DHT22;20658;45.630;8.886;2023-06-22T13:25:44;38.50;32.40
34406;DHT22;20658;45.630;8.886;2023-06-22T13:28:18;38.20;32.20
34406;DHT22;20658;45.630;8.886;2023-06-22T13:30:52;38.00;32.70
34406;DHT22;20658;45.630;8.886;2023-06-22T13:33:22;38.00;32.60
34406;DHT22;20658;45.630;8.886;2023-06-22T13:35:55;37.70;32.90
34406;DHT22;20658;45.630;8.886;2023-06-22T13:38:24;37.60;33.10
34406;DHT22;20658;45.630;8.886;2023-06-22T13:40:57;37.90;33.00
34406;DHT22;20658;45.630;8.886;2023-06-22T13:43:31;38.10;33.00
34406;DHT22;20658;45.630;8.886;2023-06-22T13:46:05;37.70;32.30
34406;DHT22;20658;45.630;8.886;2023-06-22T13:48:40;37.40;33.00
34406;DHT22;20658;45.630;8.886;2023-06-22T13:51:13;37.80;32.90
34406;DHT22;20658;45.630;8.886;2023-06-22T13:53:47;37.70;33.10
34406;DHT22;20658;45.630;8.886;2023-06-22T13:56:15;37.40;33.20
34406;DHT22;20658;45.630;8.886;2023-06-22T13:58:49;37.80;33.30
34406;DHT22;20658;45.630;8.886;2023-06-22T14:01:22;38.00;33.10
34406;DHT22;20658;45.630;8.886;2023-06-22T14:03:57;38.30;33.30
34406;DHT22;20658;45.630;8.886;2023-06-22T14:06:25;38.70;32.70
34406;DHT22;20658;45.630;8.886;2023-06-22T14:08:59;38.50;32.70
34406;DHT22;20658;45.630;8.886;2023-06-22T14:11:32;38.50;32.70
34406;DHT22;20658;45.630;8.886;2023-06-22T14:14:06;38.00;34.00
34406;DHT22;20658;45.630;8.886;2023-06-22T14:16:40;37.80;33.60
34406;DHT22;20658;45.630;8.886;2023-06-22T14:19:16;38.00;33.90
34406;DHT22;20658;45.630;8.886;2023-06-22T14:21:45;38.30;33.90
34406;DHT22;20658;45.630;8.886;2023-06-22T14:24:18;38.70;32.60
34406;DHT22;20658;45.630;8.886;2023-06-22T14:26:53;39.00;33.30
34406;DHT22;20658;45.630;8.886;2023-06-22T14:29:22;39.30;32.70
34406;DHT22;20658;45.630;8.886;2023-06-22T14:31:56;39.30;32.50
34406;DHT22;20658;45.630;8.886;2023-06-22T14:34:26;39.30;32.50
34406;DHT22;20658;45.630;8.886;2023-06-22T14:36:54;39.10;32.70
34406;DHT22;20658;45.630;8.886;2023-06-22T14:39:28;39.00;32.90
34406;DHT22;20658;45.630;8.886;2023-06-22T14:42:02;38.70;32.80
34406;DHT22;20658;45.630;8.886;2023-06-22T14:44:36;38.40;33.10
34406;DHT22;20658;45.630;8.886;2023-06-22T14:47:09;38.20;34.00
34406;DHT22;20658;45.630;8.886;2023-06-22T14:49:48;38.20;34.80
34406;DHT22;20658;45.630;8.886;2023-06-22T14:52:16;37.40;36.40
34406;DHT22;20658;45.630;8.886;2023-06-22T14:54:50;37.10;37.30
34406;DHT22;20658;45.630;8.886;2023-06-22T14:57:24;36.80;37.60
34406;DHT22;20658;45.630;8.886;2023-06-22T14:59:57;36.10;39.20
34406;DHT22;20658;45.630;8.886;2023-06-22T15:02:28;36.00;39.70
34406;DHT22;20658;45.630;8.886;2023-06-22T15:05:04;35.70;40.00
34406;DHT22;20658;45.630;8.886;2023-06-22T15:07:41;35.30;40.00
34406;DHT22;20658;45.630;8.886;2023-06-22T15:10:15;34.70;40.60
34406;DHT22;20658;45.630;8.886;2023-06-22T15:12:49;34.70;40.90
34406;DHT22;20658;45.630;8.886;2023-06-22T15:15:22;34.90;40.00
34406;DHT22;20658;45.630;8.886;2023-06-22T15:17:56;34.60;40.40
34406;DHT22;20658;45.630;8.886;2023-06-22T15:20:31;35.10;40.20
34406;DHT22;20658;45.630;8.886;2023-06-22T15:22:59;35.10;39.90
34406;DHT22;20658;45.630;8.886;2023-06-22T15:25:33;34.90;39.10
34406;DHT22;20658;45.630;8.886;2023-06-22T15:28:06;35.00;39.70
34406;DHT22;20658;45.630;8.886;2023-06-22T15:30:40;35.00;39.30
34406;DHT22;20658;45.630;8.886;2023-06-22T15:33:14;35.20;38.40
34406;DHT22;20658;45.630;8.886;2023-06-22T15:35:48;35.60;38.20
34406;DHT22;20658;45.630;8.886;2023-06-22T15:38:22;35.20;38.50
34406;DHT22;20658;45.630;8.886;2023-06-22T15:40:56;34.30;39.70
34406;DHT22;20658;45.630;8.886;2023-06-22T15:43:29;34.00;40.60
34406;DHT22;20658;45.630;8.886;2023-06-22T15:45:58;33.80;40.00
34406;DHT22;20658;45.630;8.886;2023-06-22T15:48:26;33.40;40.90
34406;DHT22;20658;45.630;8.886;2023-06-22T15:50:57;33.10;41.40
34406;DHT22;20658;45.630;8.886;2023-06-22T15:53:30;33.00;41.70
34406;DHT22;20658;45.630;8.886;2023-06-22T15:56:04;33.10;41.60
34406;DHT22;20658;45.630;8.886;2023-06-22T15:58:41;33.20;41.40
34406;DHT22;20658;45.630;8.886;2023-06-22T16:01:09;33.50;41.00
34406;DHT22;20658;45.630;8.886;2023-06-22T16:03:38;33.70;40.80
34406;DHT22;20658;45.630;8.886;2023-06-22T16:06:14;34.20;39.80
34406;DHT22;20658;45.630;8.886;2023-06-22T16:08:47;34.90;38.30
34406;DHT22;20658;45.630;8.886;2023-06-22T16:11:20;34.90;38.50